DFJOE LFBL-EDLI
Flight info
| Callsign | DFJOE |
|---|---|
| Flight time | N/A |
| Altitude | 19000 |
| Route | LARON G21 GIVOR V36 AKELU N852 DIK N853 ARCKY T853 NVO M170 HEFME DCT EXOBA/N180VFR VFR |
| Aircraft | P46T/L-SBDGRWY/SB1 |
Departure
| Time | 2026-05-06 18:02 |
|---|---|
| Airport | Limoges Airport (LFBL) |
Arrival
| Time | N/A |
|---|---|
| Airport | Bielefeld Airport (EDLI) |
| Time | Latitude | Longitude | Altitude | Speed | Heading |
|---|---|---|---|---|---|
| 2026-05-06 17:56 | 45.86331 | 1.17913 | 1305 ft | 0 kts | 214° |
| 2026-05-06 17:59 | 45.86330 | 1.17911 | 1305 ft | 1 kts | 212° |
| 2026-05-06 18:00 | 45.86275 | 1.17903 | 1304 ft | 14 kts | 216° |
| 2026-05-06 18:00 | 45.86171 | 1.17845 | 1303 ft | 18 kts | 141° |
| 2026-05-06 18:00 | 45.86103 | 1.17976 | 1303 ft | 15 kts | 126° |
| 2026-05-06 18:00 | 45.86108 | 1.18055 | 1303 ft | 0 kts | 32° |
| 2026-05-06 18:01 | 45.86110 | 1.18057 | 1303 ft | 6 kts | 33° |
| 2026-05-06 18:01 | 45.86296 | 1.18242 | 1304 ft | 57 kts | 34° |
| 2026-05-06 18:01 | 45.86732 | 1.18662 | 1311 ft | 95 kts | 33° |
| 2026-05-06 18:01 | 45.87343 | 1.19221 | 1566 ft | 105 kts | 32° |
| 2026-05-06 18:02 | 45.88017 | 1.19869 | 1775 ft | 129 kts | 34° |
| 2026-05-06 18:02 | 45.88652 | 1.20858 | 2039 ft | 143 kts | 71° |
| 2026-05-06 18:02 | 45.88709 | 1.22259 | 2508 ft | 142 kts | 94° |
| 2026-05-06 18:02 | 45.88613 | 1.24918 | 3261 ft | 146 kts | 93° |
| 2026-05-06 18:03 | 45.88414 | 1.30869 | 4919 ft | 152 kts | 93° |
| 2026-05-06 18:03 | 45.88205 | 1.37031 | 6520 ft | 157 kts | 93° |
| 2026-05-06 18:03 | 45.89178 | 1.42990 | 7993 ft | 162 kts | 57° |
| 2026-05-06 18:03 | 45.91636 | 1.48542 | 9537 ft | 167 kts | 57° |
| 2026-05-06 18:04 | 45.94154 | 1.54243 | 10996 ft | 171 kts | 57° |
| 2026-05-06 18:04 | 45.96732 | 1.60093 | 12440 ft | 175 kts | 57° |
| 2026-05-06 18:04 | 45.99371 | 1.66097 | 13882 ft | 179 kts | 56° |
| 2026-05-06 18:04 | 46.02048 | 1.72202 | 15208 ft | 181 kts | 56° |
| 2026-05-06 18:05 | 46.04757 | 1.78386 | 16585 ft | 184 kts | 56° |
| 2026-05-06 18:05 | 46.07505 | 1.84679 | 17959 ft | 187 kts | 55° |
| 2026-05-06 18:05 | 46.10311 | 1.91116 | 18930 ft | 203 kts | 56° |
| 2026-05-06 18:05 | 46.13603 | 1.98719 | 18937 ft | 236 kts | 56° |
| 2026-05-06 18:06 | 46.17153 | 2.06909 | 18943 ft | 243 kts | 56° |
| 2026-05-06 18:06 | 46.20759 | 2.15244 | 18945 ft | 246 kts | 56° |
| 2026-05-06 18:06 | 46.24124 | 2.23843 | 18945 ft | 247 kts | 63° |
| 2026-05-06 18:06 | 46.27170 | 2.32765 | 18943 ft | 248 kts | 62° |
| 2026-05-06 18:07 | 46.30216 | 2.41696 | 18945 ft | 247 kts | 62° |
| 2026-05-06 18:07 | 46.33240 | 2.50587 | 18945 ft | 246 kts | 62° |
| 2026-05-06 18:07 | 46.36251 | 2.59469 | 18924 ft | 246 kts | 62° |
| 2026-05-06 18:07 | 46.39219 | 2.68252 | 18926 ft | 246 kts | 62° |
| 2026-05-06 18:08 | 46.42226 | 2.77177 | 18920 ft | 247 kts | 62° |
| 2026-05-06 18:08 | 46.45225 | 2.86109 | 18923 ft | 246 kts | 62° |
| 2026-05-06 18:08 | 46.48206 | 2.95015 | 18913 ft | 245 kts | 62° |
| 2026-05-06 18:08 | 46.51182 | 3.03942 | 18915 ft | 245 kts | 62° |
| 2026-05-06 18:09 | 46.54158 | 3.12883 | 18910 ft | 244 kts | 62° |
| 2026-05-06 18:09 | 46.57095 | 3.21725 | 18919 ft | 243 kts | 62° |
| 2026-05-06 18:09 | 46.60028 | 3.30654 | 18916 ft | 246 kts | 63° |
| 2026-05-06 18:09 | 46.62992 | 3.39684 | 18916 ft | 248 kts | 63° |
| 2026-05-06 18:10 | 46.67011 | 3.51962 | 18910 ft | 247 kts | 63° |
| 2026-05-06 18:10 | 46.84089 | 3.80259 | 18920 ft | 243 kts | 51° |
| 2026-05-06 18:10 | 47.03185 | 4.05658 | 18923 ft | 229 kts | 40° |
| 2026-05-06 18:10 | 47.22297 | 4.31632 | 18920 ft | 236 kts | 39° |
| 2026-05-06 18:11 | 47.41577 | 4.57706 | 18927 ft | 232 kts | 41° |
| 2026-05-06 18:11 | 47.61082 | 4.84266 | 18921 ft | 243 kts | 42° |
| 2026-05-06 18:11 | 47.81204 | 5.11861 | 18922 ft | 245 kts | 43° |
| 2026-05-06 18:11 | 47.87827 | 5.21010 | 18912 ft | 244 kts | 42° |
| 2026-05-06 18:12 | 48.05416 | 5.53910 | 18902 ft | 247 kts | 58° |
| 2026-05-06 18:12 | 48.22135 | 5.86468 | 18893 ft | 247 kts | 53° |
| 2026-05-06 18:12 | 48.41031 | 6.15109 | 18891 ft | 245 kts | 19° |
| 2026-05-06 18:12 | 48.48621 | 6.22404 | 18865 ft | 244 kts | 44° |